sensor_id;sensor_type;location;lat;lon;timestamp;pressure;altitude;pressure_sealevel;temperature
80246;BMP280;69558;39.208;-77.226;2023-09-18T00:00:22;99717.94;;;25.49
80246;BMP280;69558;39.208;-77.226;2023-09-18T00:02:49;99711.56;;;25.50
80246;BMP280;69558;39.208;-77.226;2023-09-18T00:05:14;99675.47;;;25.22
80246;BMP280;69558;39.208;-77.226;2023-09-18T00:07:42;99707.31;;;25.49
80246;BMP280;69558;39.208;-77.226;2023-09-18T00:10:10;99709.97;;;25.49
80246;BMP280;69558;39.208;-77.226;2023-09-18T00:12:36;99709.16;;;25.48
80246;BMP280;69558;39.208;-77.226;2023-09-18T00:15:02;99700.88;;;25.45
80246;BMP280;69558;39.208;-77.226;2023-09-18T00:17:28;99720.06;;;25.47
80246;BMP280;69558;39.208;-77.226;2023-09-18T00:19:54;99721.91;;;25.46
80246;BMP280;69558;39.208;-77.226;2023-09-18T00:22:20;99725.59;;;25.45
80246;BMP280;69558;39.208;-77.226;2023-09-18T00:24:47;99733.06;;;25.48
80246;BMP280;69558;39.208;-77.226;2023-09-18T00:27:13;99733.56;;;25.45
80246;BMP280;69558;39.208;-77.226;2023-09-18T00:29:42;99720.28;;;25.45
80246;BMP280;69558;39.208;-77.226;2023-09-18T00:32:08;99722.94;;;25.45
80246;BMP280;69558;39.208;-77.226;2023-09-18T00:34:34;99685.56;;;25.25
80246;BMP280;69558;39.208;-77.226;2023-09-18T00:37:00;99721.91;;;25.46
80246;BMP280;69558;39.208;-77.226;2023-09-18T00:39:26;99717.41;;;25.47
80246;BMP280;69558;39.208;-77.226;2023-09-18T00:41:52;99723.22;;;25.44
80246;BMP280;69558;39.208;-77.226;2023-09-18T00:44:24;99719.19;;;25.41
80246;BMP280;69558;39.208;-77.226;2023-09-18T00:46:53;99725.06;;;25.43
80246;BMP280;69558;39.208;-77.226;2023-09-18T00:49:22;99732.75;;;25.45
80246;BMP280;69558;39.208;-77.226;2023-09-18T00:51:49;99732.53;;;25.46
80246;BMP280;69558;39.208;-77.226;2023-09-18T00:54:16;99733.28;;;25.42
80246;BMP280;69558;39.208;-77.226;2023-09-18T00:56:46;99704.69;;;25.27
80246;BMP280;69558;39.208;-77.226;2023-09-18T00:59:14;99729.25;;;25.39
80246;BMP280;69558;39.208;-77.226;2023-09-18T01:01:41;99722.09;;;25.40
80246;BMP280;69558;39.208;-77.226;2023-09-18T01:04:08;99689.25;;;25.24
80246;BMP280;69558;39.208;-77.226;2023-09-18T01:06:34;99709.56;;;25.35
80246;BMP280;69558;39.208;-77.226;2023-09-18T01:09:04;99704.81;;;25.37
80246;BMP280;69558;39.208;-77.226;2023-09-18T01:11:44;99694.25;;;25.42
80246;BMP280;69558;39.208;-77.226;2023-09-18T01:14:19;99668.47;;;25.16
80246;BMP280;69558;39.208;-77.226;2023-09-18T01:16:58;99701.66;;;25.40
80246;BMP280;69558;39.208;-77.226;2023-09-18T01:19:37;99690.75;;;25.37
80246;BMP280;69558;39.208;-77.226;2023-09-18T01:22:05;99688.63;;;25.39
80246;BMP280;69558;39.208;-77.226;2023-09-18T01:24:33;99698.44;;;25.38
80246;BMP280;69558;39.208;-77.226;2023-09-18T01:26:59;99680.31;;;25.30
80246;BMP280;69558;39.208;-77.226;2023-09-18T01:29:26;99697.69;;;25.43
80246;BMP280;69558;39.208;-77.226;2023-09-18T01:31:52;99658.91;;;25.15
80246;BMP280;69558;39.208;-77.226;2023-09-18T01:34:23;99706.16;;;25.40
80246;BMP280;69558;39.208;-77.226;2023-09-18T01:36:52;99709.06;;;25.38
80246;BMP280;69558;39.208;-77.226;2023-09-18T01:39:20;99705.59;;;25.38
80246;BMP280;69558;39.208;-77.226;2023-09-18T01:41:47;99699.94;;;25.29
80246;BMP280;69558;39.208;-77.226;2023-09-18T01:44:13;99713.56;;;25.38
80246;BMP280;69558;39.208;-77.226;2023-09-18T01:46:39;99703.72;;;25.33
80246;BMP280;69558;39.208;-77.226;2023-09-18T01:49:06;99703.22;;;25.36
80246;BMP280;69558;39.208;-77.226;2023-09-18T01:51:32;99706.69;;;25.37
80246;BMP280;69558;39.208;-77.226;2023-09-18T01:53:58;99705.34;;;25.39
80246;BMP280;69558;39.208;-77.226;2023-09-18T01:56:24;99696.56;;;25.33
80246;BMP280;69558;39.208;-77.226;2023-09-18T01:58:50;99688.59;;;25.33
80246;BMP280;69558;39.208;-77.226;2023-09-18T02:01:16;99688.03;;;25.31
80246;BMP280;69558;39.208;-77.226;2023-09-18T02:03:42;99690.47;;;25.38
80246;BMP280;69558;39.208;-77.226;2023-09-18T02:06:09;99685.97;;;25.39
80246;BMP280;69558;39.208;-77.226;2023-09-18T02:08:36;99687.00;;;25.38
80246;BMP280;69558;39.208;-77.226;2023-09-18T02:11:02;99690.69;;;25.31
80246;BMP280;69558;39.208;-77.226;2023-09-18T02:13:31;99688.31;;;25.35
80246;BMP280;69558;39.208;-77.226;2023-09-18T02:15:58;99654.13;;;25.12
80246;BMP280;69558;39.208;-77.226;2023-09-18T02:18:24;99688.09;;;25.37
80246;BMP280;69558;39.208;-77.226;2023-09-18T02:20:50;99682.78;;;25.37
80246;BMP280;69558;39.208;-77.226;2023-09-18T02:23:16;99675.31;;;25.33
80246;BMP280;69558;39.208;-77.226;2023-09-18T02:25:42;99667.22;;;25.23
80246;BMP280;69558;39.208;-77.226;2023-09-18T02:28:08;99645.31;;;25.11
80246;BMP280;69558;39.208;-77.226;2023-09-18T02:30:34;99684.34;;;25.38
80246;BMP280;69558;39.208;-77.226;2023-09-18T02:32:59;99683.31;;;25.39
80246;BMP280;69558;39.208;-77.226;2023-09-18T02:35:29;99691.53;;;25.37
80246;BMP280;69558;39.208;-77.226;2023-09-18T02:37:55;99696.06;;;25.37
80246;BMP280;69558;39.208;-77.226;2023-09-18T02:40:22;99687.81;;;25.38
80246;BMP280;69558;39.208;-77.226;2023-09-18T02:42:48;99693.41;;;25.37
80246;BMP280;69558;39.208;-77.226;2023-09-18T02:45:14;99697.06;;;25.35
80246;BMP280;69558;39.208;-77.226;2023-09-18T02:47:40;99698.94;;;25.35
80246;BMP280;69558;39.208;-77.226;2023-09-18T02:50:07;99701.06;;;25.33
80246;BMP280;69558;39.208;-77.226;2023-09-18T02:52:33;99690.69;;;25.31
80246;BMP280;69558;39.208;-77.226;2023-09-18T02:54:59;99691.25;;;25.33
80246;BMP280;69558;39.208;-77.226;2023-09-18T02:57:25;99677.91;;;25.28
80246;BMP280;69558;39.208;-77.226;2023-09-18T02:59:51;99682.78;;;25.37
80246;BMP280;69558;39.208;-77.226;2023-09-18T03:02:18;99656.56;;;25.18
80246;BMP280;69558;39.208;-77.226;2023-09-18T03:04:44;99691.78;;;25.35
80246;BMP280;69558;39.208;-77.226;2023-09-18T03:07:12;99689.34;;;25.34
80246;BMP280;69558;39.208;-77.226;2023-09-18T03:09:38;99685.44;;;25.37
80246;BMP280;69558;39.208;-77.226;2023-09-18T03:12:04;99679.31;;;25.36
80246;BMP280;69558;39.208;-77.226;2023-09-18T03:14:31;99682.78;;;25.37
80246;BMP280;69558;39.208;-77.226;2023-09-18T03:16:56;99679.81;;;25.33
80246;BMP280;69558;39.208;-77.226;2023-09-18T03:19:22;99672.91;;;25.32
80246;BMP280;69558;39.208;-77.226;2023-09-18T03:21:50;99680.63;;;25.33
80246;BMP280;69558;39.208;-77.226;2023-09-18T03:24:16;99675.78;;;25.30
80246;BMP280;69558;39.208;-77.226;2023-09-18T03:26:42;99683.53;;;25.32
80246;BMP280;69558;39.208;-77.226;2023-09-18T03:29:08;99674.22;;;25.34
80246;BMP280;69558;39.208;-77.226;2023-09-18T03:31:35;99639.03;;;25.17
80246;BMP280;69558;39.208;-77.226;2023-09-18T03:34:01;99661.25;;;25.33
80246;BMP280;69558;39.208;-77.226;2023-09-18T03:36:27;99661.75;;;25.35
80246;BMP280;69558;39.208;-77.226;2023-09-18T03:38:53;99654.53;;;25.30
80246;BMP280;69558;39.208;-77.226;2023-09-18T03:41:19;99663.63;;;25.34
80246;BMP280;69558;39.208;-77.226;2023-09-18T03:43:45;99668.41;;;25.32
80246;BMP280;69558;39.208;-77.226;2023-09-18T03:46:11;99639.03;;;25.17
80246;BMP280;69558;39.208;-77.226;2023-09-18T03:48:37;99661.25;;;25.33
80246;BMP280;69558;39.208;-77.226;2023-09-18T03:51:06;99669.94;;;25.28
80246;BMP280;69558;39.208;-77.226;2023-09-18T03:53:33;99670.25;;;25.32
80246;BMP280;69558;39.208;-77.226;2023-09-18T03:56:00;99650.75;;;25.21
80246;BMP280;69558;39.208;-77.226;2023-09-18T03:58:26;99663.34;;;25.31
80246;BMP280;69558;39.208;-77.226;2023-09-18T04:00:52;99629.13;;;25.08
80246;BMP280;69558;39.208;-77.226;2023-09-18T04:03:18;99669.19;;;25.33
80246;BMP280;69558;39.208;-77.226;2023-09-18T04:05:44;99663.81;;;25.28
80246;BMP280;69558;39.208;-77.226;2023-09-18T04:08:10;99648.38;;;25.25
80246;BMP280;69558;39.208;-77.226;2023-09-18T04:10:37;99657.19;;;25.30
80246;BMP280;69558;39.208;-77.226;2023-09-18T04:13:03;99651.66;;;25.32
80246;BMP280;69558;39.208;-77.226;2023-09-18T04:15:30;99642.34;;;25.29
80246;BMP280;69558;39.208;-77.226;2023-09-18T04:17:59;99656.41;;;25.30
80246;BMP280;69558;39.208;-77.226;2023-09-18T04:20:25;99643.41;;;25.28
80246;BMP280;69558;39.208;-77.226;2023-09-18T04:23:18;99646.84;;;25.29
80246;BMP280;69558;39.208;-77.226;2023-09-18T04:25:45;99644.19;;;25.29
80246;BMP280;69558;39.208;-77.226;2023-09-18T04:28:13;99636.22;;;25.29
80246;BMP280;69558;39.208;-77.226;2023-09-18T04:30:39;99626.66;;;25.28
80246;BMP280;69558;39.208;-77.226;2023-09-18T04:33:05;99630.94;;;25.34
80246;BMP280;69558;39.208;-77.226;2023-09-18T04:35:30;99636.78;;;25.31
80246;BMP280;69558;39.208;-77.226;2023-09-18T04:37:59;99635.75;;;25.32
80246;BMP280;69558;39.208;-77.226;2023-09-18T04:40:25;99633.59;;;25.34
80246;BMP280;69558;39.208;-77.226;2023-09-18T04:43:01;99623.78;;;25.34
80246;BMP280;69558;39.208;-77.226;2023-09-18T04:45:30;99621.66;;;25.31
80246;BMP280;69558;39.208;-77.226;2023-09-18T04:47:57;99613.88;;;25.25
80246;BMP280;69558;39.208;-77.226;2023-09-18T04:50:23;99620.03;;;25.30
80246;BMP280;69558;39.208;-77.226;2023-09-18T04:52:52;99609.38;;;25.25
80246;BMP280;69558;39.208;-77.226;2023-09-18T04:55:20;99609.94;;;25.27
80246;BMP280;69558;39.208;-77.226;2023-09-18T04:57:47;99620.53;;;25.27
80246;BMP280;69558;39.208;-77.226;2023-09-18T05:00:13;99611.78;;;25.27
80246;BMP280;69558;39.208;-77.226;2023-09-18T05:02:40;99613.94;;;25.30
80246;BMP280;69558;39.208;-77.226;2023-09-18T05:05:07;99566.22;;;25.08
80246;BMP280;69558;39.208;-77.226;2023-09-18T05:07:36;99600.97;;;25.33
80246;BMP280;69558;39.208;-77.226;2023-09-18T05:10:03;99589.56;;;25.33
80246;BMP280;69558;39.208;-77.226;2023-09-18T05:12:30;99597.53;;;25.33
80246;BMP280;69558;39.208;-77.226;2023-09-18T05:14:56;99597.22;;;25.29
80246;BMP280;69558;39.208;-77.226;2023-09-18T05:17:42;99598.78;;;25.30
80246;BMP280;69558;39.208;-77.226;2023-09-18T05:20:12;99597.22;;;25.29
80246;BMP280;69558;39.208;-77.226;2023-09-18T05:22:42;99599.63;;;25.31
80246;BMP280;69558;39.208;-77.226;2023-09-18T05:25:09;99557.97;;;25.05
80246;BMP280;69558;39.208;-77.226;2023-09-18T05:27:41;99603.06;;;25.31
80246;BMP280;69558;39.208;-77.226;2023-09-18T05:30:19;99604.09;;;25.30
80246;BMP280;69558;39.208;-77.226;2023-09-18T05:32:48;99601.72;;;25.29
80246;BMP280;69558;39.208;-77.226;2023-09-18T05:35:15;99591.59;;;25.26
80246;BMP280;69558;39.208;-77.226;2023-09-18T05:37:42;99578.22;;;25.16
80246;BMP280;69558;39.208;-77.226;2023-09-18T05:40:10;99587.66;;;25.28
80246;BMP280;69558;39.208;-77.226;2023-09-18T05:42:37;99585.50;;;25.30
80246;BMP280;69558;39.208;-77.226;2023-09-18T05:45:04;99578.13;;;25.32
80246;BMP280;69558;39.208;-77.226;2023-09-18T05:47:33;99579.44;;;25.30
80246;BMP280;69558;39.208;-77.226;2023-09-18T05:50:05;99582.09;;;25.30
80246;BMP280;69558;39.208;-77.226;2023-09-18T05:52:33;99576.22;;;25.28
80246;BMP280;69558;39.208;-77.226;2023-09-18T05:55:00;99580.19;;;25.30
80246;BMP280;69558;39.208;-77.226;2023-09-18T05:57:26;99578.88;;;25.28
80246;BMP280;69558;39.208;-77.226;2023-09-18T05:59:56;99551.13;;;25.09
80246;BMP280;69558;39.208;-77.226;2023-09-18T06:02:23;99543.16;;;25.09
80246;BMP280;69558;39.208;-77.226;2023-09-18T06:04:57;99550.66;;;25.17
80246;BMP280;69558;39.208;-77.226;2023-09-18T06:07:29;99569.38;;;25.32
80246;BMP280;69558;39.208;-77.226;2023-09-18T06:09:57;99566.16;;;25.30
80246;BMP280;69558;39.208;-77.226;2023-09-18T06:12:23;99530.38;;;25.06
80246;BMP280;69558;39.208;-77.226;2023-09-18T06:14:50;99562.94;;;25.28
80246;BMP280;69558;39.208;-77.226;2023-09-18T06:17:17;99525.75;;;24.96
80246;BMP280;69558;39.208;-77.226;2023-09-18T06:19:45;99535.00;;;24.88
80246;BMP280;69558;39.208;-77.226;2023-09-18T06:22:14;99529.31;;;24.80
80246;BMP280;69558;39.208;-77.226;2023-09-18T06:24:40;99532.78;;;24.80
80246;BMP280;69558;39.208;-77.226;2023-09-18T06:27:07;99562.38;;;24.94
80246;BMP280;69558;39.208;-77.226;2023-09-18T06:29:34;99563.41;;;24.93
80246;BMP280;69558;39.208;-77.226;2023-09-18T06:32:01;99554.09;;;24.90
80246;BMP280;69558;39.208;-77.226;2023-09-18T06:34:28;99514.84;;;24.66
80246;BMP280;69558;39.208;-77.226;2023-09-18T06:36:54;99553.59;;;24.93
80246;BMP280;69558;39.208;-77.226;2023-09-18T06:39:21;99541.31;;;24.87
80246;BMP280;69558;39.208;-77.226;2023-09-18T06:41:49;99540.09;;;24.95
80246;BMP280;69558;39.208;-77.226;2023-09-18T06:44:15;99525.53;;;24.97
80246;BMP280;69558;39.208;-77.226;2023-09-18T06:46:42;99547.25;;;25.21
80246;BMP280;69558;39.208;-77.226;2023-09-18T06:49:09;99537.16;;;25.23
80246;BMP280;69558;39.208;-77.226;2023-09-18T06:51:35;99537.22;;;25.28
80246;BMP280;69558;39.208;-77.226;2023-09-18T06:54:01;99542.00;;;25.31
80246;BMP280;69558;39.208;-77.226;2023-09-18T06:56:28;99532.41;;;25.30
80246;BMP280;69558;39.208;-77.226;2023-09-18T06:58:54;99527.38;;;25.29
80246;BMP280;69558;39.208;-77.226;2023-09-18T07:01:22;99523.19;;;25.33
80246;BMP280;69558;39.208;-77.226;2023-09-18T07:03:50;99515.47;;;25.31
80246;BMP280;69558;39.208;-77.226;2023-09-18T07:06:16;99517.88;;;25.33
80246;BMP280;69558;39.208;-77.226;2023-09-18T07:08:44;99512.28;;;25.34
80246;BMP280;69558;39.208;-77.226;2023-09-18T07:11:10;99509.09;;;25.32
80246;BMP280;69558;39.208;-77.226;2023-09-18T07:13:40;99503.03;;;25.37
80246;BMP280;69558;39.208;-77.226;2023-09-18T07:16:06;99511.47;;;25.34
80246;BMP280;69558;39.208;-77.226;2023-09-18T07:18:32;99509.91;;;25.33
80246;BMP280;69558;39.208;-77.226;2023-09-18T07:20:58;99491.81;;;25.30
80246;BMP280;69558;39.208;-77.226;2023-09-18T07:23:24;99503.53;;;25.34
80246;BMP280;69558;39.208;-77.226;2023-09-18T07:25:50;99488.38;;;25.29
80246;BMP280;69558;39.208;-77.226;2023-09-18T07:28:16;99455.34;;;25.15
80246;BMP280;69558;39.208;-77.226;2023-09-18T07:30:44;99476.97;;;25.34
80246;BMP280;69558;39.208;-77.226;2023-09-18T07:33:11;99445.25;;;25.12
80246;BMP280;69558;39.208;-77.226;2023-09-18T07:35:38;99500.38;;;25.37
80246;BMP280;69558;39.208;-77.226;2023-09-18T07:38:04;99496.94;;;25.37
80246;BMP280;69558;39.208;-77.226;2023-09-18T07:40:30;99471.56;;;25.19
80246;BMP280;69558;39.208;-77.226;2023-09-18T07:42:56;99488.69;;;25.33
80246;BMP280;69558;39.208;-77.226;2023-09-18T07:45:25;99489.75;;;25.37
80246;BMP280;69558;39.208;-77.226;2023-09-18T07:47:51;99483.88;;;25.35
80246;BMP280;69558;39.208;-77.226;2023-09-18T07:50:17;99475.91;;;25.35
80246;BMP280;69558;39.208;-77.226;2023-09-18T07:52:43;99445.78;;;25.14
80246;BMP280;69558;39.208;-77.226;2023-09-18T07:55:09;99482.28;;;25.34
80246;BMP280;69558;39.208;-77.226;2023-09-18T07:57:36;99491.03;;;25.34
80246;BMP280;69558;39.208;-77.226;2023-09-18T08:00:03;99480.16;;;25.31
80246;BMP280;69558;39.208;-77.226;2023-09-18T08:02:35;99488.13;;;25.31
80246;BMP280;69558;39.208;-77.226;2023-09-18T08:05:01;99493.69;;;25.34
80246;BMP280;69558;39.208;-77.226;2023-09-18T08:07:28;99495.84;;;25.32
80246;BMP280;69558;39.208;-77.226;2023-09-18T08:09:54;99498.50;;;25.38
80246;BMP280;69558;39.208;-77.226;2023-09-18T08:12:23;99489.72;;;25.32
80246;BMP280;69558;39.208;-77.226;2023-09-18T08:14:49;99492.16;;;25.39
80246;BMP280;69558;39.208;-77.226;2023-09-18T08:17:16;99482.56;;;25.38
80246;BMP280;69558;39.208;-77.226;2023-09-18T08:19:43;99473.81;;;25.37
80246;BMP280;69558;39.208;-77.226;2023-09-18T08:22:10;99462.38;;;25.31
80246;BMP280;69558;39.208;-77.226;2023-09-18T08:24:40;99461.09;;;25.39
80246;BMP280;69558;39.208;-77.226;2023-09-18T08:27:07;99460.78;;;25.35
80246;BMP280;69558;39.208;-77.226;2023-09-18T08:29:33;99470.59;;;25.35
80246;BMP280;69558;39.208;-77.226;2023-09-18T08:31:59;99462.13;;;25.33
80246;BMP280;69558;39.208;-77.226;2023-09-18T08:34:26;99468.22;;;25.33
80246;BMP280;69558;39.208;-77.226;2023-09-18T08:36:52;99466.09;;;25.35
80246;BMP280;69558;39.208;-77.226;2023-09-18T08:39:18;99466.34;;;25.34
80246;BMP280;69558;39.208;-77.226;2023-09-18T08:41:47;99465.03;;;25.31
80246;BMP280;69558;39.208;-77.226;2023-09-18T08:44:14;99463.69;;;25.34
80246;BMP280;69558;39.208;-77.226;2023-09-18T08:46:41;99453.56;;;25.26
80246;BMP280;69558;39.208;-77.226;2023-09-18T08:49:10;99467.16;;;25.34
80246;BMP280;69558;39.208;-77.226;2023-09-18T08:51:38;99468.75;;;25.35
80246;BMP280;69558;39.208;-77.226;2023-09-18T08:54:05;99479.91;;;25.32
80246;BMP280;69558;39.208;-77.226;2023-09-18T08:56:32;99480.97;;;25.31
80246;BMP280;69558;39.208;-77.226;2023-09-18T08:59:01;99485.72;;;25.29
80246;BMP280;69558;39.208;-77.226;2023-09-18T09:01:27;99484.63;;;25.30
80246;BMP280;69558;39.208;-77.226;2023-09-18T09:03:54;99473.25;;;25.30
80246;BMP280;69558;39.208;-77.226;2023-09-18T09:06:21;99487.59;;;25.34
80246;BMP280;69558;39.208;-77.226;2023-09-18T09:08:50;99496.88;;;25.31
80246;BMP280;69558;39.208;-77.226;2023-09-18T09:11:17;99491.78;;;25.25
80246;BMP280;69558;39.208;-77.226;2023-09-18T09:13:45;99495.03;;;25.32
80246;BMP280;69558;39.208;-77.226;2023-09-18T09:16:11;99509.59;;;25.29
80246;BMP280;69558;39.208;-77.226;2023-09-18T09:18:50;99517.31;;;25.31
80246;BMP280;69558;39.208;-77.226;2023-09-18T09:21:16;99517.56;;;25.29
80246;BMP280;69558;39.208;-77.226;2023-09-18T09:23:50;99512.81;;;25.31
80246;BMP280;69558;39.208;-77.226;2023-09-18T09:26:21;99510.41;;;25.30
80246;BMP280;69558;39.208;-77.226;2023-09-18T09:28:49;99507.50;;;25.31
80246;BMP280;69558;39.208;-77.226;2023-09-18T09:31:29;99502.44;;;25.30
80246;BMP280;69558;39.208;-77.226;2023-09-18T09:33:56;99511.19;;;25.30
80246;BMP280;69558;39.208;-77.226;2023-09-18T09:36:24;99515.72;;;25.30
80246;BMP280;69558;39.208;-77.226;2023-09-18T09:38:56;99512.25;;;25.29
80246;BMP280;69558;39.208;-77.226;2023-09-18T09:41:29;99500.28;;;25.27
80246;BMP280;69558;39.208;-77.226;2023-09-18T09:43:57;99508.25;;;25.27
80246;BMP280;69558;39.208;-77.226;2023-09-18T09:46:24;99513.25;;;25.23
80246;BMP280;69558;39.208;-77.226;2023-09-18T09:49:02;99513.81;;;25.25
80246;BMP280;69558;39.208;-77.226;2023-09-18T09:51:29;99519.72;;;25.32
80246;BMP280;69558;39.208;-77.226;2023-09-18T09:53:55;99525.28;;;25.31
80246;BMP280;69558;39.208;-77.226;2023-09-18T09:56:46;99527.38;;;25.29
80246;BMP280;69558;39.208;-77.226;2023-09-18T09:59:14;99534.31;;;25.30
80246;BMP280;69558;39.208;-77.226;2023-09-18T10:01:41;99536.41;;;25.28
80246;BMP280;69558;39.208;-77.226;2023-09-18T10:04:14;99540.34;;;25.25
80246;BMP280;69558;39.208;-77.226;2023-09-18T10:07:06;99550.16;;;25.25
80246;BMP280;69558;39.208;-77.226;2023-09-18T10:09:35;99546.72;;;25.24
80246;BMP280;69558;39.208;-77.226;2023-09-18T10:12:03;99537.69;;;25.25
80246;BMP280;69558;39.208;-77.226;2023-09-18T10:14:33;99524.44;;;25.25
80246;BMP280;69558;39.208;-77.226;2023-09-18T10:17:16;99517.03;;;25.27
80246;BMP280;69558;39.208;-77.226;2023-09-18T10:20:07;99513.75;;;25.20
80246;BMP280;69558;39.208;-77.226;2023-09-18T10:22:39;99516.72;;;25.24
80246;BMP280;69558;39.208;-77.226;2023-09-18T10:25:17;99527.09;;;25.25
80246;BMP280;69558;39.208;-77.226;2023-09-18T10:27:48;99513.00;;;25.25
80246;BMP280;69558;39.208;-77.226;2023-09-18T10:30:16;99514.84;;;25.19
80246;BMP280;69558;39.208;-77.226;2023-09-18T10:32:46;99537.44;;;25.27
80246;BMP280;69558;39.208;-77.226;2023-09-18T10:35:14;99524.69;;;25.24
80246;BMP280;69558;39.208;-77.226;2023-09-18T10:37:45;99524.69;;;25.24
80246;BMP280;69558;39.208;-77.226;2023-09-18T10:40:12;99523.63;;;25.25
80246;BMP280;69558;39.208;-77.226;2023-09-18T10:42:39;99514.63;;;25.26
80246;BMP280;69558;39.208;-77.226;2023-09-18T10:45:10;99526.84;;;25.27
80246;BMP280;69558;39.208;-77.226;2023-09-18T10:47:42;99525.47;;;25.24
80246;BMP280;69558;39.208;-77.226;2023-09-18T10:50:09;99518.03;;;25.21
80246;BMP280;69558;39.208;-77.226;2023-09-18T10:52:35;99518.31;;;25.25
80246;BMP280;69558;39.208;-77.226;2023-09-18T10:55:02;99515.66;;;25.25
80246;BMP280;69558;39.208;-77.226;2023-09-18T10:57:36;99514.34;;;25.22
80246;BMP280;69558;39.208;-77.226;2023-09-18T11:00:04;99513.53;;;25.22
80246;BMP280;69558;39.208;-77.226;2023-09-18T11:02:42;99521.22;;;25.23
80246;BMP280;69558;39.208;-77.226;2023-09-18T11:05:08;99517.22;;;25.21
80246;BMP280;69558;39.208;-77.226;2023-09-18T11:07:35;99520.97;;;25.25
80246;BMP280;69558;39.208;-77.226;2023-09-18T11:10:27;99515.44;;;25.26
80246;BMP280;69558;39.208;-77.226;2023-09-18T11:12:53;99514.84;;;25.19
80246;BMP280;69558;39.208;-77.226;2023-09-18T11:15:31;99512.22;;;25.24
80246;BMP280;69558;39.208;-77.226;2023-09-18T11:18:02;99510.34;;;25.25
80246;BMP280;69558;39.208;-77.226;2023-09-18T11:20:31;99522.53;;;25.21
80246;BMP280;69558;39.208;-77.226;2023-09-18T11:25:39;99536.91;;;25.25
80246;BMP280;69558;39.208;-77.226;2023-09-18T11:28:07;99538.50;;;25.26
80246;BMP280;69558;39.208;-77.226;2023-09-18T11:30:34;99524.97;;;25.22
80246;BMP280;69558;39.208;-77.226;2023-09-18T11:33:05;99517.75;;;25.18
80246;BMP280;69558;39.208;-77.226;2023-09-18T11:35:35;99527.31;;;25.19
80246;BMP280;69558;39.208;-77.226;2023-09-18T11:38:07;99531.56;;;25.20
80246;BMP280;69558;39.208;-77.226;2023-09-18T11:40:36;99533.72;;;25.23
80246;BMP280;69558;39.208;-77.226;2023-09-18T11:43:22;99524.69;;;25.24
80246;BMP280;69558;39.208;-77.226;2023-09-18T11:45:59;99531.59;;;25.25
80246;BMP280;69558;39.208;-77.226;2023-09-18T11:48:27;99534.50;;;25.23
80246;BMP280;69558;39.208;-77.226;2023-09-18T11:50:56;99536.88;;;25.20
80246;BMP280;69558;39.208;-77.226;2023-09-18T11:53:24;99536.88;;;25.20
80246;BMP280;69558;39.208;-77.226;2023-09-18T11:55:50;99536.06;;;25.19
80246;BMP280;69558;39.208;-77.226;2023-09-18T11:58:15;99511.88;;;25.16
80246;BMP280;69558;39.208;-77.226;2023-09-18T12:00:42;99523.06;;;25.18
80246;BMP280;69558;39.208;-77.226;2023-09-18T12:03:22;99511.09;;;25.15
80246;BMP280;69558;39.208;-77.226;2023-09-18T12:06:02;99489.22;;;25.03
80246;BMP280;69558;39.208;-77.226;2023-09-18T12:08:31;99497.75;;;25.10
80246;BMP280;69558;39.208;-77.226;2023-09-18T12:10:58;99517.75;;;25.18
80246;BMP280;69558;39.208;-77.226;2023-09-18T12:13:25;99498.84;;;25.09
80246;BMP280;69558;39.208;-77.226;2023-09-18T12:15:58;99514.84;;;25.19
80246;BMP280;69558;39.208;-77.226;2023-09-18T12:18:25;99517.75;;;25.18
80246;BMP280;69558;39.208;-77.226;2023-09-18T12:20:54;99515.66;;;25.20
80246;BMP280;69558;39.208;-77.226;2023-09-18T12:23:26;99497.22;;;25.08
80246;BMP280;69558;39.208;-77.226;2023-09-18T12:25:59;99505.53;;;25.17
80246;BMP280;69558;39.208;-77.226;2023-09-18T12:28:27;99513.50;;;25.17
80246;BMP280;69558;39.208;-77.226;2023-09-18T12:30:58;99511.63;;;25.17
80246;BMP280;69558;39.208;-77.226;2023-09-18T12:33:25;99511.63;;;25.17
80246;BMP280;69558;39.208;-77.226;2023-09-18T12:35:51;99507.63;;;25.15
80246;BMP280;69558;39.208;-77.226;2023-09-18T12:38:19;99506.03;;;25.14
80246;BMP280;69558;39.208;-77.226;2023-09-18T12:40:48;99518.53;;;25.18
80246;BMP280;69558;39.208;-77.226;2023-09-18T12:43:15;99510.53;;;25.13
80246;BMP280;69558;39.208;-77.226;2023-09-18T12:45:42;99474.25;;;24.92
80246;BMP280;69558;39.208;-77.226;2023-09-18T12:48:09;99516.38;;;25.15
80246;BMP280;69558;39.208;-77.226;2023-09-18T12:50:36;99516.13;;;25.17
80246;BMP280;69558;39.208;-77.226;2023-09-18T12:53:13;99515.59;;;25.15
80246;BMP280;69558;39.208;-77.226;2023-09-18T12:55:40;99522.50;;;25.16
80246;BMP280;69558;39.208;-77.226;2023-09-18T12:58:10;99522.81;;;25.19
80246;BMP280;69558;39.208;-77.226;2023-09-18T13:00:37;99528.34;;;25.18
80246;BMP280;69558;39.208;-77.226;2023-09-18T13:03:03;99534.47;;;25.18
80246;BMP280;69558;39.208;-77.226;2023-09-18T13:05:30;99500.03;;;24.96
80246;BMP280;69558;39.208;-77.226;2023-09-18T13:08:04;99521.41;;;25.12
80246;BMP280;69558;39.208;-77.226;2023-09-18T13:10:45;99534.16;;;25.15
80246;BMP280;69558;39.208;-77.226;2023-09-18T13:13:21;99526.72;;;25.12
80246;BMP280;69558;39.208;-77.226;2023-09-18T13:15:48;99525.41;;;25.14
80246;BMP280;69558;39.208;-77.226;2023-09-18T13:18:15;99520.09;;;25.14
80246;BMP280;69558;39.208;-77.226;2023-09-18T13:20:44;99525.16;;;25.16
80246;BMP280;69558;39.208;-77.226;2023-09-18T13:23:10;99519.56;;;25.12
80246;BMP280;69558;39.208;-77.226;2023-09-18T13:25:38;99486.94;;;24.85
80246;BMP280;69558;39.208;-77.226;2023-09-18T13:28:07;99521.94;;;25.14
80246;BMP280;69558;39.208;-77.226;2023-09-18T13:30:36;99523.78;;;25.13
80246;BMP280;69558;39.208;-77.226;2023-09-18T13:33:09;99527.81;;;25.16
80246;BMP280;69558;39.208;-77.226;2023-09-18T13:35:40;99519.56;;;25.12
80246;BMP280;69558;39.208;-77.226;2023-09-18T13:38:07;99525.41;;;25.14
80246;BMP280;69558;39.208;-77.226;2023-09-18T13:40:40;99526.44;;;25.13
80246;BMP280;69558;39.208;-77.226;2023-09-18T13:43:08;99526.94;;;25.10
80246;BMP280;69558;39.208;-77.226;2023-09-18T13:45:35;99534.91;;;25.10
80246;BMP280;69558;39.208;-77.226;2023-09-18T13:48:07;99541.31;;;25.14
80246;BMP280;69558;39.208;-77.226;2023-09-18T13:50:36;99545.03;;;25.13
80246;BMP280;69558;39.208;-77.226;2023-09-18T13:53:02;99530.69;;;25.09